Time;durP1;ratioP1;P1;durP2;ratioP2;P2;SDS_P1;SDS_P2;PMS_P1;PMS_P2;Temp;Humidity;BMP_temperature;BMP_pressure;BME280_temperature;BME280_humidity;BME280_pressure;Samples;Min_cycle;Max_cycle;Signal;HPM_P1;HPM_P2
2021/04/24 00:02:17;;;;;;;7.23;6.27;;;10.40;68.10;;;;;;5051947;28;20182;-78
2021/04/24 00:04:43;;;;;;;9.90;6.00;;;10.40;69.10;;;;;;5052810;28;20186;-79
2021/04/24 00:07:09;;;;;;;6.80;5.80;;;10.40;68.90;;;;;;5052949;28;20209;-79
2021/04/24 00:09:36;;;;;;;5.50;5.00;;;10.30;67.00;;;;;;5052129;28;20175;-79
2021/04/24 00:12:03;;;;;;;6.47;5.00;;;10.30;66.50;;;;;;5052601;28;20401;-79
2021/04/24 00:14:29;;;;;;;9.03;5.40;;;10.30;66.30;;;;;;5051189;28;20416;-79
2021/04/24 00:16:55;;;;;;;6.50;5.43;;;10.30;66.40;;;;;;5052783;28;20922;-79
2021/04/24 00:19:21;;;;;;;5.57;5.07;;;10.30;66.80;;;;;;5051961;28;20406;-79
2021/04/24 00:21:46;;;;;;;10.73;5.20;;;10.30;67.20;;;;;;5052546;28;20177;-79
2021/04/24 00:24:12;;;;;;;12.30;6.70;;;10.30;68.50;;;;;;5052373;28;20249;-79
2021/04/24 00:26:38;;;;;;;6.90;5.37;;;10.30;68.90;;;;;;5033537;28;20194;-79
2021/04/24 00:29:04;;;;;;;8.37;5.20;;;10.30;69.00;;;;;;5034879;28;20469;-79
2021/04/24 00:31:30;;;;;;;7.73;5.60;;;10.20;69.50;;;;;;5051791;28;20176;-79
2021/04/24 00:33:56;;;;;;;8.43;5.63;;;10.20;69.70;;;;;;5052396;28;20507;-79
2021/04/24 00:36:22;;;;;;;6.53;5.10;;;10.10;69.90;;;;;;5033890;28;20641;-79
2021/04/24 00:38:48;;;;;;;9.50;5.80;;;10.00;70.10;;;;;;5052455;28;20915;-79
2021/04/24 00:41:14;;;;;;;7.40;4.60;;;10.00;70.50;;;;;;5052362;28;20443;-79
2021/04/24 00:43:39;;;;;;;5.97;4.53;;;9.90;71.50;;;;;;5051582;28;20173;-79
2021/04/24 00:46:13;;;;;;;5.93;4.90;;;9.80;70.30;;;;;;5051836;28;20178;-79
2021/04/24 00:48:40;;;;;;;5.43;4.43;;;9.80;71.10;;;;;;5051484;28;20964;-79
2021/04/24 00:51:07;;;;;;;8.13;4.33;;;9.80;71.70;;;;;;5052370;28;20386;-79
2021/04/24 00:53:33;;;;;;;5.20;4.70;;;9.80;70.80;;;;;;5051417;28;20416;-79
2021/04/24 00:55:58;;;;;;;7.20;5.53;;;9.90;70.90;;;;;;5052100;28;20455;-79
2021/04/24 00:58:25;;;;;;;6.53;5.00;;;9.90;70.70;;;;;;5051014;28;20178;-79
2021/04/24 01:00:51;;;;;;;5.73;5.10;;;9.90;70.50;;;;;;5052140;28;20409;-79
2021/04/24 01:03:17;;;;;;;8.87;5.57;;;10.00;69.00;;;;;;5051889;28;20404;-77
2021/04/24 01:05:44;;;;;;;7.40;5.23;;;10.00;69.40;;;;;;5051542;28;20496;-80
2021/04/24 01:08:10;;;;;;;9.80;5.47;;;10.00;69.40;;;;;;5052035;28;20212;-79
2021/04/24 01:10:37;;;;;;;7.07;6.00;;;10.00;68.70;;;;;;5051281;28;20405;-79
2021/04/24 01:13:04;;;;;;;6.03;5.43;;;10.00;69.00;;;;;;5052064;28;20407;-79
2021/04/24 01:15:30;;;;;;;8.10;4.90;;;10.00;68.90;;;;;;5051568;28;20459;-79
2021/04/24 01:17:56;;;;;;;6.23;5.63;;;9.90;70.30;;;;;;5051740;28;20981;-79
2021/04/24 01:20:23;;;;;;;7.47;5.80;;;9.90;70.80;;;;;;5033280;28;20768;-78
2021/04/24 01:22:50;;;;;;;6.63;5.97;;;9.90;70.90;;;;;;5052224;28;20818;-79
2021/04/24 01:25:22;;;;;;;6.43;5.80;;;9.80;70.50;;;;;;5055700;28;20460;-80
2021/04/24 01:27:50;;;;;;;8.43;5.60;;;9.80;71.00;;;;;;5056167;28;20939;-80
2021/04/24 01:30:19;;;;;;;8.20;6.40;;;9.70;70.80;;;;;;5055853;28;20938;-80
2021/04/24 01:32:45;;;;;;;6.03;4.93;;;9.70;71.20;;;;;;5055429;28;20412;-79
2021/04/24 01:35:14;;;;;;;7.00;5.67;;;9.60;71.40;;;;;;5055886;28;20419;-79
2021/04/24 01:37:41;;;;;;;8.00;5.13;;;9.60;71.40;;;;;;5054945;28;20404;-79
2021/04/24 01:40:08;;;;;;;5.27;4.40;;;9.60;71.50;;;;;;5038050;28;20396;-79
2021/04/24 01:42:34;;;;;;;5.77;4.53;;;9.60;72.50;;;;;;5054874;28;20415;-79
2021/04/24 01:45:00;;;;;;;6.83;5.97;;;9.50;72.10;;;;;;5037870;28;20392;-79
2021/04/24 01:47:26;;;;;;;6.03;5.20;;;9.40;70.80;;;;;;5055069;28;20926;-79
2021/04/24 01:49:52;;;;;;;7.80;5.30;;;9.40;71.00;;;;;;5055339;28;20415;-79
2021/04/24 01:52:17;;;;;;;6.37;5.73;;;9.40;70.70;;;;;;5055540;28;20412;-79
2021/04/24 01:54:43;;;;;;;5.93;4.50;;;9.20;70.50;;;;;;5036929;28;20208;-80
2021/04/24 01:57:09;;;;;;;8.00;4.90;;;9.10;70.70;;;;;;5055528;28;20216;-80
2021/04/24 01:59:36;;;;;;;6.37;5.10;;;9.10;71.50;;;;;;5054664;28;20174;-80
2021/04/24 02:02:03;;;;;;;7.70;5.37;;;9.10;71.70;;;;;;5055417;28;20408;-79
2021/04/24 02:04:29;;;;;;;8.40;5.00;;;9.10;71.50;;;;;;5054522;28;20412;-80
2021/04/24 02:06:55;;;;;;;6.43;4.70;;;9.00;71.30;;;;;;5055282;28;20409;-80
2021/04/24 02:09:22;;;;;;;6.80;6.10;;;9.10;72.20;;;;;;5055294;28;20419;-78
2021/04/24 02:12:06;;;;;;;8.17;6.40;;;9.10;72.80;;;;;;5054986;28;20412;-79
2021/04/24 02:14:47;;;;;;;6.10;5.10;;;9.10;73.00;;;;;;5054319;28;20405;-80
2021/04/24 02:17:23;;;;;;;7.63;5.80;;;9.10;73.40;;;;;;5055074;28;20517;-80
2021/04/24 02:19:50;;;;;;;6.97;5.87;;;9.10;74.00;;;;;;5054960;28;20376;-80
2021/04/24 02:22:17;;;;;;;7.80;5.83;;;9.10;73.80;;;;;;5055037;28;20916;-80
2021/04/24 02:24:44;;;;;;;8.67;6.47;;;9.10;74.10;;;;;;5054141;28;20517;-79
2021/04/24 02:27:11;;;;;;;7.33;6.47;;;9.00;74.00;;;;;;5054820;28;20958;-79
2021/04/24 02:29:39;;;;;;;7.50;6.77;;;9.00;74.80;;;;;;5053754;28;20412;-79
2021/04/24 02:32:06;;;;;;;7.90;7.13;;;9.00;75.10;;;;;;5054718;28;20407;-79
2021/04/24 02:34:32;;;;;;;10.60;7.80;;;9.00;75.00;;;;;;5054045;28;20420;-80
2021/04/24 02:36:58;;;;;;;6.70;6.10;;;9.10;75.60;;;;;;5054805;28;20404;-80
2021/04/24 02:39:41;;;;;;;8.30;6.47;;;8.90;75.80;;;;;;5054278;28;20466;-78
2021/04/24 02:42:14;;;;;;;9.70;6.90;;;8.90;76.40;;;;;;5054685;28;20163;-80
2021/04/24 02:44:41;;;;;;;8.87;6.80;;;8.80;76.20;;;;;;5053801;28;20392;-79
2021/04/24 02:47:07;;;;;;;10.30;7.07;;;8.80;76.30;;;;;;5054262;28;20487;-79
2021/04/24 02:49:33;;;;;;;9.00;6.80;;;8.70;76.30;;;;;;5053635;28;20470;-79
2021/04/24 02:52:01;;;;;;;7.60;6.57;;;8.70;76.70;;;;;;5054578;28;20412;-80
2021/04/24 02:54:26;;;;;;;9.43;6.70;;;8.60;77.70;;;;;;5053329;28;20404;-77
2021/04/24 02:56:53;;;;;;;13.47;9.60;;;8.60;76.80;;;;;;5054364;28;20408;-80
2021/04/24 02:59:19;;;;;;;11.63;7.23;;;8.50;77.20;;;;;;5054396;28;20177;-80
2021/04/24 03:01:46;;;;;;;9.47;7.20;;;8.40;77.50;;;;;;5053538;28;20974;-80
2021/04/24 03:04:12;;;;;;;7.00;6.30;;;8.50;78.00;;;;;;5054530;28;20412;-80
2021/04/24 03:06:38;;;;;;;6.93;6.33;;;8.40;77.90;;;;;;5053374;28;20772;-79
2021/04/24 03:09:04;;;;;;;7.40;5.67;;;8.40;78.00;;;;;;5053914;28;20426;-79
2021/04/24 03:11:32;;;;;;;7.60;6.80;;;8.30;78.50;;;;;;5052819;28;20431;-80
2021/04/24 03:13:58;;;;;;;7.77;6.97;;;8.20;78.60;;;;;;5054327;28;20418;-80
2021/04/24 03:16:24;;;;;;;7.73;6.80;;;8.20;79.00;;;;;;5053767;28;20371;-78
2021/04/24 03:18:53;;;;;;;9.73;7.63;;;8.20;79.30;;;;;;5053178;28;20415;-81
2021/04/24 03:21:23;;;;;;;10.30;8.00;;;8.10;79.00;;;;;;5053804;28;20377;-81
2021/04/24 03:23:49;;;;;;;8.77;7.87;;;8.00;79.40;;;;;;5053061;28;20440;-81
2021/04/24 03:26:15;;;;;;;8.87;7.73;;;8.00;79.70;;;;;;5053743;28;20420;-81
2021/04/24 03:28:41;;;;;;;8.40;7.30;;;8.00;79.90;;;;;;5052983;28;20436;-79
2021/04/24 03:31:07;;;;;;;9.20;7.97;;;8.00;80.50;;;;;;5053722;28;20506;-80
2021/04/24 03:33:33;;;;;;;17.20;8.73;;;8.00;79.90;;;;;;5052313;28;20513;-80
2021/04/24 03:35:58;;;;;;;9.20;8.27;;;8.10;79.90;;;;;;5053243;28;20187;-80
2021/04/24 03:38:24;;;;;;;8.97;7.30;;;7.70;80.20;;;;;;5053471;28;20389;-80
2021/04/24 03:40:50;;;;;;;7.63;6.83;;;7.30;81.50;;;;;;5052498;28;20572;-80
2021/04/24 03:43:15;;;;;;;10.93;7.50;;;7.20;82.90;;;;;;5053468;28;20183;-79
2021/04/24 03:45:41;;;;;;;8.40;7.40;;;7.10;83.70;;;;;;5051915;28;20182;-79
2021/04/24 03:48:07;;;;;;;11.77;7.97;;;6.90;84.50;;;;;;5053372;28;20198;-79
2021/04/24 03:50:33;;;;;;;8.83;7.50;;;6.80;85.70;;;;;;5051916;28;20281;-79
2021/04/24 03:52:59;;;;;;;8.63;7.17;;;6.90;86.00;;;;;;5053163;28;20507;-79
2021/04/24 03:55:25;;;;;;;9.20;6.87;;;6.90;86.00;;;;;;5053080;28;20403;-79
2021/04/24 03:57:54;;;;;;;8.77;7.67;;;7.20;86.10;;;;;;5052283;28;20287;-79
2021/04/24 04:00:21;;;;;;;10.10;7.43;;;7.20;85.50;;;;;;5053099;28;20418;-79
2021/04/24 04:02:48;;;;;;;8.07;7.27;;;7.30;85.20;;;;;;5052230;28;20406;-79
2021/04/24 04:05:15;;;;;;;7.93;7.13;;;7.30;85.10;;;;;;5053024;28;20791;-79
2021/04/24 04:07:42;;;;;;;8.40;7.03;;;7.40;84.80;;;;;;5051870;28;20493;-79
2021/04/24 04:10:09;;;;;;;7.43;6.73;;;7.40;84.60;;;;;;5052885;28;20508;-80
2021/04/24 04:12:35;;;;;;;8.43;7.57;;;7.50;84.10;;;;;;5052095;28;20445;-79
2021/04/24 04:15:01;;;;;;;14.90;9.30;;;7.50;83.80;;;;;;5052877;28;20419;-80
2021/04/24 04:17:27;;;;;;;9.97;7.30;;;7.50;83.60;;;;;;5052567;28;20539;-80
2021/04/24 04:19:53;;;;;;;10.40;7.50;;;7.30;83.50;;;;;;5052064;28;20463;-80
2021/04/24 04:22:18;;;;;;;9.00;7.27;;;7.00;84.80;;;;;;5052966;28;20263;-80
2021/04/24 04:24:44;;;;;;;8.50;6.93;;;6.90;86.10;;;;;;5051292;28;20225;-80
2021/04/24 04:27:10;;;;;;;7.70;6.47;;;6.90;86.80;;;;;;5052320;28;20198;-80
2021/04/24 04:29:36;;;;;;;9.03;7.50;;;7.00;87.10;;;;;;5051751;28;20225;-80
2021/04/24 04:32:01;;;;;;;11.30;7.20;;;7.00;86.70;;;;;;5052570;28;20261;-81
2021/04/24 04:34:27;;;;;;;11.20;8.00;;;7.10;86.70;;;;;;5052563;28;20178;-81
2021/04/24 04:36:53;;;;;;;8.77;7.17;;;7.20;86.40;;;;;;5051715;28;20652;-81
2021/04/24 04:39:18;;;;;;;9.30;7.53;;;7.20;86.70;;;;;;5052424;28;20183;-81
2021/04/24 04:41:44;;;;;;;10.33;7.67;;;7.20;86.30;;;;;;5051380;28;20266;-80
2021/04/24 04:44:10;;;;;;;11.47;7.90;;;7.30;87.40;;;;;;5051886;28;20545;-80
2021/04/24 04:46:35;;;;;;;10.30;8.10;;;7.30;86.50;;;;;;5051290;28;20215;-80
2021/04/24 04:49:01;;;;;;;10.80;7.63;;;7.40;86.30;;;;;;5051860;28;20208;-80
2021/04/24 04:51:27;;;;;;;12.77;7.63;;;7.40;85.90;;;;;;5052325;28;20166;-79
2021/04/24 04:53:52;;;;;;;8.40;6.40;;;7.50;85.70;;;;;;5051683;28;20339;-81
2021/04/24 04:56:18;;;;;;;8.27;7.00;;;7.50;85.20;;;;;;5052200;28;20183;-81
2021/04/24 04:58:44;;;;;;;8.30;7.40;;;7.50;85.00;;;;;;5050739;28;20177;-81
2021/04/24 05:01:09;;;;;;;8.03;7.10;;;7.50;85.40;;;;;;5052212;28;20207;-81
2021/04/24 05:03:35;;;;;;;11.57;8.07;;;7.50;85.50;;;;;;5051089;28;20191;-80
2021/04/24 05:06:01;;;;;;;13.53;7.93;;;7.50;85.70;;;;;;5052315;28;20638;-81
2021/04/24 05:08:27;;;;;;;10.30;7.63;;;7.60;85.50;;;;;;5051756;28;20266;-81
2021/04/24 05:10:53;;;;;;;13.33;8.90;;;7.60;85.10;;;;;;5033460;28;20185;-82
2021/04/24 05:13:19;;;;;;;9.33;8.37;;;7.70;84.80;;;;;;5051841;28;20174;-81
2021/04/24 05:15:44;;;;;;;8.93;8.00;;;7.70;84.50;;;;;;5051224;28;20410;-81
2021/04/24 05:18:10;;;;;;;13.20;7.73;;;7.60;84.50;;;;;;5051910;28;20185;-82
2021/04/24 05:20:36;;;;;;;12.30;8.33;;;7.50;85.10;;;;;;5033475;28;20206;-82
2021/04/24 05:23:02;;;;;;;11.13;9.00;;;7.30;85.90;;;;;;5051837;28;20380;-82
2021/04/24 05:25:28;;;;;;;9.80;7.60;;;7.30;86.40;;;;;;5051714;28;20484;-82
2021/04/24 05:27:54;;;;;;;10.57;8.10;;;7.20;86.50;;;;;;5051203;28;20269;-82
2021/04/24 05:30:20;;;;;;;11.83;8.20;;;7.20;87.50;;;;;;5051931;28;20394;-82
2021/04/24 05:32:47;;;;;;;11.70;8.30;;;7.30;87.60;;;;;;5051087;28;20176;-82
2021/04/24 05:35:14;;;;;;;12.20;8.50;;;7.30;87.50;;;;;;5051950;28;20438;-81
2021/04/24 05:37:40;;;;;;;10.27;7.57;;;7.30;87.70;;;;;;5051013;28;20496;-81
2021/04/24 05:40:07;;;;;;;24.87;8.03;;;7.30;87.30;;;;;;5051787;28;20499;-81
2021/04/24 05:42:34;;;;;;;12.57;8.27;;;7.30;87.80;;;;;;5051596;28;20179;-79
2021/04/24 05:45:00;;;;;;;16.77;8.23;;;7.40;87.60;;;;;;5051379;28;20385;-82
2021/04/24 05:47:29;;;;;;;11.43;7.20;;;7.60;87.90;;;;;;5051675;28;20424;-82
2021/04/24 05:49:54;;;;;;;11.37;7.23;;;7.70;86.50;;;;;;5050895;28;20418;-81
2021/04/24 05:52:20;;;;;;;11.27;7.80;;;7.70;85.70;;;;;;5051623;28;20375;-81
2021/04/24 05:54:46;;;;;;;8.57;7.67;;;7.80;86.10;;;;;;5050783;28;20173;-81
2021/04/24 05:57:12;;;;;;;10.10;7.67;;;7.90;86.10;;;;;;5051590;28;20199;-81
2021/04/24 05:59:37;;;;;;;12.80;7.43;;;7.90;85.30;;;;;;5050922;28;20407;-80
2021/04/24 06:02:03;;;;;;;13.03;8.00;;;8.00;84.90;;;;;;5051306;28;20251;-82
2021/04/24 06:04:29;;;;;;;9.97;8.00;;;8.10;84.40;;;;;;5051291;28;20212;-81
2021/04/24 06:06:54;;;;;;;10.13;8.23;;;8.20;84.00;;;;;;5032943;28;20799;-81
2021/04/24 06:09:20;;;;;;;8.53;7.20;;;8.20;84.00;;;;;;5052723;28;20176;-81
2021/04/24 06:11:46;;;;;;;11.60;7.57;;;8.20;83.90;;;;;;5054174;28;20254;-82
2021/04/24 06:14:11;;;;;;;12.47;6.40;;;8.10;82.60;;;;;;5055199;28;20181;-82
2021/04/24 06:16:37;;;;;;;9.60;7.30;;;8.00;82.80;;;;;;5054501;28;20632;-80
2021/04/24 06:19:04;;;;;;;10.27;7.80;;;8.00;84.40;;;;;;5054603;28;20185;-82
2021/04/24 06:21:29;;;;;;;9.43;6.67;;;8.00;85.00;;;;;;5054992;28;20267;-81
2021/04/24 06:23:56;;;;;;;9.70;7.07;;;8.10;85.10;;;;;;5054003;28;20531;-81
2021/04/24 06:26:22;;;;;;;8.20;6.77;;;8.20;85.30;;;;;;5036683;28;20242;-82
2021/04/24 06:28:47;;;;;;;7.63;6.83;;;8.30;85.20;;;;;;5053991;28;20458;-81
2021/04/24 06:31:13;;;;;;;10.13;7.00;;;8.40;85.00;;;;;;5055138;28;20215;-81
2021/04/24 06:33:39;;;;;;;8.13;6.47;;;8.50;86.20;;;;;;5054046;28;20411;-80
2021/04/24 06:36:05;;;;;;;8.00;6.47;;;8.70;85.30;;;;;;5054623;28;20176;-83
2021/04/24 06:38:32;;;;;;;8.57;6.30;;;8.70;83.70;;;;;;5054748;28;20386;-83
2021/04/24 06:40:58;;;;;;;6.73;5.67;;;8.70;82.20;;;;;;5053978;28;20439;-81
2021/04/24 06:43:23;;;;;;;7.30;5.50;;;8.60;83.30;;;;;;5054436;28;20837;-82
2021/04/24 06:45:49;;;;;;;8.90;6.33;;;8.80;83.70;;;;;;5053744;28;20534;-81
2021/04/24 06:48:15;;;;;;;8.73;5.80;;;8.70;82.70;;;;;;5054643;28;20291;-82
2021/04/24 06:50:40;;;;;;;10.10;6.40;;;8.80;84.30;;;;;;5053845;28;20699;-80
2021/04/24 06:53:06;;;;;;;8.40;6.00;;;8.90;83.50;;;;;;5054180;28;20178;-83
2021/04/24 06:55:32;;;;;;;13.30;6.23;;;9.00;84.60;;;;;;5054799;28;20530;-83
2021/04/24 06:57:58;;;;;;;9.40;7.23;;;9.20;83.90;;;;;;5053562;28;20204;-84
2021/04/24 07:00:24;;;;;;;9.90;7.53;;;9.10;82.90;;;;;;5019964;28;20177;-83
2021/04/24 07:02:49;;;;;;;9.70;6.53;;;9.30;84.00;;;;;;5053528;28;20625;-82
2021/04/24 07:05:16;;;;;;;9.43;6.53;;;9.40;83.40;;;;;;5036549;28;20466;-83
2021/04/24 07:07:42;;;;;;;7.40;6.10;;;9.20;83.50;;;;;;5053316;28;20631;-81
2021/04/24 07:10:09;;;;;;;10.27;6.63;;;9.30;84.70;;;;;;5036108;28;20819;-84
2021/04/24 07:12:36;;;;;;;13.80;7.37;;;9.20;83.30;;;;;;5054044;28;20416;-84
2021/04/24 07:15:04;;;;;;;8.40;6.00;;;8.70;84.70;;;;;;5052937;28;20421;-83
2021/04/24 07:17:29;;;;;;;9.43;6.77;;;8.30;87.60;;;;;;5053964;28;20423;-83
2021/04/24 07:19:55;;;;;;;11.30;6.80;;;8.40;89.90;;;;;;5052845;28;20506;-83
2021/04/24 07:22:21;;;;;;;7.20;6.10;;;8.70;90.20;;;;;;5035296;28;20264;-83
2021/04/24 07:24:47;;;;;;;12.13;6.63;;;8.90;90.00;;;;;;5053016;28;20283;-82
2021/04/24 07:27:14;;;;;;;11.50;7.30;;;8.90;89.30;;;;;;5053610;28;20195;-83
2021/04/24 07:29:41;;;;;;;9.83;6.97;;;9.00;90.10;;;;;;5053474;28;20942;-80
2021/04/24 07:32:09;;;;;;;7.13;6.20;;;9.20;90.20;;;;;;5053401;28;20414;-83
2021/04/24 07:34:35;;;;;;;8.50;7.13;;;9.30;89.40;;;;;;5053541;28;20411;-82
2021/04/24 07:37:01;;;;;;;8.77;6.40;;;8.90;90.30;;;;;;5052729;28;20415;-83
2021/04/24 07:39:27;;;;;;;9.13;7.07;;;8.90;91.00;;;;;;5053353;28;20193;-82
2021/04/24 07:41:53;;;;;;;11.97;6.20;;;9.10;91.90;;;;;;5052785;28;20408;-81
2021/04/24 07:44:19;;;;;;;6.80;5.80;;;9.30;91.10;;;;;;5053220;28;20512;-78
2021/04/24 07:46:45;;;;;;;7.57;6.23;;;9.50;91.10;;;;;;5034757;28;20212;-88
2021/04/24 07:49:10;;;;;;;7.37;6.67;;;9.60;90.80;;;;;;5053519;28;20456;-80
2021/04/24 07:51:36;;;;;;;7.93;5.20;;;9.90;90.50;;;;;;5053498;28;20177;-79
2021/04/24 07:54:02;;;;;;;8.70;6.07;;;10.00;88.60;;;;;;5052452;28;20309;-81
2021/04/24 07:56:28;;;;;;;8.83;6.90;;;10.10;87.60;;;;;;5053291;28;20595;-81
2021/04/24 07:58:53;;;;;;;6.40;5.70;;;10.20;88.00;;;;;;5034593;28;20973;-81
2021/04/24 08:01:19;;;;;;;5.63;4.90;;;10.40;86.00;;;;;;5053178;28;20178;-79
2021/04/24 08:03:46;;;;;;;7.80;5.97;;;10.40;85.40;;;;;;5034443;28;20174;-77
2021/04/24 08:06:12;;;;;;;6.87;6.27;;;10.60;85.40;;;;;;5053303;28;20178;-80
2021/04/24 08:08:38;;;;;;;6.80;6.17;;;10.80;85.70;;;;;;5052979;28;20932;-80
2021/04/24 08:11:04;;;;;;;6.00;5.40;;;10.90;83.30;;;;;;5052189;28;20425;-80
2021/04/24 08:13:30;;;;;;;6.70;6.00;;;11.10;81.70;;;;;;5053004;28;20267;-78
2021/04/24 08:15:55;;;;;;;6.50;5.63;;;11.30;81.40;;;;;;5052077;28;20515;-76
2021/04/24 08:18:21;;;;;;;11.43;7.20;;;11.50;81.40;;;;;;5052330;28;20198;-77
2021/04/24 08:20:47;;;;;;;7.30;6.00;;;11.50;79.10;;;;;;5051766;28;20670;-83
2021/04/24 08:23:13;;;;;;;8.60;7.43;;;11.60;79.50;;;;;;5034936;28;20271;-75
2021/04/24 08:25:38;;;;;;;8.17;6.43;;;11.50;79.00;;;;;;5052764;28;20173;-75
2021/04/24 08:28:04;;;;;;;7.73;6.10;;;11.50;78.20;;;;;;5051757;28;20460;-75
2021/04/24 08:30:30;;;;;;;5.73;5.33;;;11.60;79.60;;;;;;5052646;28;20256;-76
2021/04/24 08:32:57;;;;;;;13.07;7.60;;;11.70;79.50;;;;;;5051546;28;20201;-76
2021/04/24 08:35:22;;;;;;;11.20;6.90;;;11.90;79.40;;;;;;5052554;28;20412;-79
2021/04/24 08:37:48;;;;;;;8.33;5.77;;;11.80;78.40;;;;;;5051006;28;20418;-76
2021/04/24 08:40:20;;;;;;;6.43;5.40;;;12.00;79.20;;;;;;5052481;28;20213;-76
2021/04/24 08:42:49;;;;;;;6.30;5.70;;;12.30;77.30;;;;;;5033981;28;20673;-75
2021/04/24 08:45:16;;;;;;;54.87;33.70;;;12.20;75.40;;;;;;5052413;28;20421;-76
2021/04/24 08:47:48;;;;;;;11.37;9.50;;;12.30;75.30;;;;;;5034511;28;20884;-76
2021/04/24 08:50:26;;;;;;;6.70;6.10;;;12.50;75.30;;;;;;5052302;28;20502;-76
2021/04/24 08:52:53;;;;;;;7.00;6.30;;;12.50;73.20;;;;;;5051454;28;20760;-75
2021/04/24 08:55:48;;;;;;;7.43;6.10;;;12.40;73.60;;;;;;5052476;28;20417;-76
2021/04/24 08:58:16;;;;;;;7.43;5.83;;;12.40;72.40;;;;;;5031447;28;20424;-76
2021/04/24 09:00:44;;;;;;;8.50;7.23;;;12.40;73.50;;;;;;5051919;28;20401;-76
2021/04/24 09:03:12;;;;;;;7.13;6.20;;;12.40;74.70;;;;;;5051372;28;20408;-76
2021/04/24 09:05:39;;;;;;;7.70;7.00;;;12.40;76.40;;;;;;5051996;28;20879;-76
2021/04/24 09:08:10;;;;;;;8.73;6.50;;;12.50;75.40;;;;;;5051268;28;20904;-76
2021/04/24 09:10:42;;;;;;;85.43;61.87;;;12.50;76.30;;;;;;5052139;28;20419;-76
2021/04/24 09:13:09;;;;;;;7.60;6.80;;;12.50;74.60;;;;;;5051083;28;21005;-75
2021/04/24 09:15:34;;;;;;;8.83;5.80;;;12.10;70.10;;;;;;5052017;28;20499;-76
2021/04/24 09:18:03;;;;;;;10.70;6.40;;;11.80;72.30;;;;;;5051277;28;20522;-76
2021/04/24 09:20:32;;;;;;;7.80;6.00;;;12.10;74.80;;;;;;5051941;28;20427;-75
2021/04/24 09:23:06;;;;;;;7.43;5.50;;;12.30;72.40;;;;;;5050959;28;20487;-75
2021/04/24 09:25:49;;;;;;;8.07;5.63;;;12.60;73.80;;;;;;5052116;28;20526;-75
2021/04/24 09:28:45;;;;;;;6.20;5.30;;;12.90;74.40;;;;;;5051773;28;20447;-75
2021/04/24 09:31:16;;;;;;;6.43;5.83;;;13.30;71.90;;;;;;5030485;28;20924;-75
2021/04/24 09:33:47;;;;;;;8.87;6.80;;;13.30;70.00;;;;;;5051928;28;20409;-80
2021/04/24 09:36:13;;;;;;;9.43;7.40;;;13.60;72.00;;;;;;5051403;28;20399;-80
2021/04/24 09:38:42;;;;;;;6.87;5.40;;;13.90;75.50;;;;;;5051626;28;20421;-80
2021/04/24 09:41:10;;;;;;;7.17;6.57;;;14.20;71.60;;;;;;5051029;28;20476;-80
2021/04/24 09:43:55;;;;;;;9.00;6.00;;;14.30;71.30;;;;;;5051704;28;20430;-79
2021/04/24 09:46:24;;;;;;;9.30;8.10;;;14.40;68.90;;;;;;5055767;28;20531;-79
2021/04/24 09:48:50;;;;;;;6.77;6.17;;;14.50;71.30;;;;;;5055260;28;20831;-78
2021/04/24 09:51:18;;;;;;;7.27;6.50;;;14.50;69.00;;;;;;5055136;28;20498;-79
2021/04/24 09:54:04;;;;;;;7.63;6.80;;;14.50;67.30;;;;;;5055809;28;20188;-80
2021/04/24 09:56:30;;;;;;;8.70;7.10;;;14.70;66.10;;;;;;5037641;28;20410;-79
2021/04/24 09:59:03;;;;;;;6.60;5.50;;;14.60;66.90;;;;;;5054637;28;20421;-78
2021/04/24 10:01:33;;;;;;;6.80;6.07;;;14.70;67.50;;;;;;5055557;28;20300;-79
2021/04/24 10:04:00;;;;;;;8.87;7.97;;;14.80;66.50;;;;;;5054661;28;20435;-79
2021/04/24 10:06:33;;;;;;;6.93;5.70;;;14.90;67.30;;;;;;5055366;28;20522;-79
2021/04/24 10:09:12;;;;;;;8.33;6.07;;;15.00;64.90;;;;;;5054491;28;21017;-79
2021/04/24 10:11:47;;;;;;;7.80;5.80;;;15.20;63.20;;;;;;5055243;28;20444;-79
2021/04/24 10:14:13;;;;;;;6.87;6.23;;;15.30;65.90;;;;;;5054556;28;20400;-80
2021/04/24 10:16:43;;;;;;;6.80;6.20;;;15.40;62.60;;;;;;5055099;28;20408;-80
2021/04/24 10:19:16;;;;;;;6.87;6.17;;;15.60;63.60;;;;;;5054331;28;20419;-80
2021/04/24 10:21:43;;;;;;;5.57;5.00;;;15.80;62.80;;;;;;5055150;28;20419;-80
2021/04/24 10:24:11;;;;;;;5.90;5.40;;;15.90;64.40;;;;;;5054092;28;20543;-80
2021/04/24 10:26:38;;;;;;;7.07;6.37;;;16.00;62.00;;;;;;5054928;28;20430;-80
2021/04/24 10:29:07;;;;;;;11.23;8.17;;;16.00;62.00;;;;;;5053777;28;20449;-79
2021/04/24 10:31:34;;;;;;;6.83;5.90;;;16.10;62.00;;;;;;5055188;28;20466;-80
2021/04/24 10:34:04;;;;;;;7.40;6.70;;;16.20;61.20;;;;;;5054071;28;20505;-80
2021/04/24 10:36:30;;;;;;;5.77;5.30;;;16.10;58.30;;;;;;5054932;28;20500;-81
2021/04/24 10:38:57;;;;;;;6.73;6.13;;;15.90;59.00;;;;;;5053980;28;20463;-79
2021/04/24 10:41:42;;;;;;;118.13;84.17;;;16.00;58.90;;;;;;5054649;28;20408;-80
2021/04/24 10:44:16;;;;;;;15.00;13.23;;;16.20;59.30;;;;;;5053988;28;20442;-80
2021/04/24 10:46:51;;;;;;;7.57;6.87;;;16.40;59.10;;;;;;5054657;28;20413;-79
2021/04/24 10:49:22;;;;;;;7.60;6.90;;;16.60;60.50;;;;;;5053951;28;20447;-86
2021/04/24 10:51:53;;;;;;;7.67;6.03;;;16.80;59.00;;;;;;5054482;28;20406;-81
2021/04/24 10:54:24;;;;;;;7.40;6.77;;;16.90;57.20;;;;;;5053890;28;20414;-81
2021/04/24 10:56:50;;;;;;;7.27;6.73;;;17.00;58.30;;;;;;5053847;28;20432;-81
2021/04/24 10:59:30;;;;;;;7.80;6.23;;;17.10;57.10;;;;;;5053537;28;20423;-81
2021/04/24 11:02:08;;;;;;;6.17;5.77;;;17.20;58.10;;;;;;5053632;28;20173;-79
2021/04/24 11:04:47;;;;;;;5.63;5.10;;;17.30;57.60;;;;;;5054276;28;20446;-82
2021/04/24 11:07:22;;;;;;;7.30;6.13;;;17.20;56.80;;;;;;5053145;28;20566;-81
2021/04/24 11:10:10;;;;;;;5.73;5.23;;;17.20;57.00;;;;;;5054267;28;20420;-81
2021/04/24 11:12:44;;;;;;;7.40;5.60;;;17.30;54.00;;;;;;5052978;28;20420;-81
2021/04/24 11:15:13;;;;;;;6.33;5.77;;;17.20;53.60;;;;;;5053534;28;20416;-80
2021/04/24 11:17:40;;;;;;;6.73;6.07;;;17.10;56.70;;;;;;5054022;28;20420;-81
2021/04/24 11:20:08;;;;;;;7.47;4.97;;;17.30;57.30;;;;;;5052949;28;20412;-80
2021/04/24 11:22:43;;;;;;;6.27;5.63;;;17.30;55.70;;;;;;5036064;28;20419;-79
2021/04/24 11:25:23;;;;;;;121.20;84.83;;;17.50;57.00;;;;;;5052763;28;20473;-79
2021/04/24 11:28:10;;;;;;;8.30;7.47;;;17.60;54.90;;;;;;5053889;28;20438;-80
2021/04/24 11:30:58;;;;;;;6.67;6.03;;;17.60;53.80;;;;;;5053802;28;20473;-81
2021/04/24 11:33:40;;;;;;;6.10;5.50;;;17.40;53.70;;;;;;5053797;28;20412;-80
2021/04/24 11:38:56;;;;;;;6.43;5.87;;;17.40;54.30;;;;;;5053682;28;20764;-79
2021/04/24 11:41:39;;;;;;;6.00;5.50;;;17.40;54.30;;;;;;5053043;28;20427;-79
2021/04/24 11:44:17;;;;;;;6.33;5.43;;;17.30;53.00;;;;;;5052609;28;20941;-79
2021/04/24 11:46:44;;;;;;;7.37;6.77;;;17.20;53.50;;;;;;5053383;28;20412;-80
2021/04/24 11:49:12;;;;;;;5.70;5.17;;;17.20;54.80;;;;;;5052599;28;20478;-79
2021/04/24 11:51:43;;;;;;;6.00;5.40;;;17.20;53.20;;;;;;5053550;28;20420;-79
2021/04/24 11:54:28;;;;;;;6.10;5.50;;;17.30;54.50;;;;;;5052654;28;20489;-79
2021/04/24 11:56:57;;;;;;;6.20;5.70;;;17.40;55.80;;;;;;5035387;28;20425;-79
2021/04/24 11:59:32;;;;;;;6.03;5.30;;;17.60;55.50;;;;;;5052990;28;20816;-79
2021/04/24 12:02:04;;;;;;;6.67;5.60;;;17.70;53.20;;;;;;5035052;28;20471;-78
2021/04/24 12:04:35;;;;;;;7.77;7.07;;;18.00;54.70;;;;;;5035349;28;20869;-79
2021/04/24 12:07:12;;;;;;;6.83;5.17;;;17.90;54.30;;;;;;5051807;28;20393;-78
2021/04/24 12:09:48;;;;;;;5.27;4.87;;;17.90;53.90;;;;;;5053146;28;20423;-79
2021/04/24 12:12:18;;;;;;;6.13;5.53;;;18.10;52.50;;;;;;5052091;28;20415;-79
2021/04/24 12:14:44;;;;;;;5.67;5.27;;;18.30;53.70;;;;;;5053162;28;20397;-79
2021/04/24 12:17:16;;;;;;;5.83;5.20;;;18.50;53.40;;;;;;5034281;28;20404;-78
2021/04/24 12:19:45;;;;;;;5.93;5.43;;;18.60;51.20;;;;;;5052544;28;20428;-79
2021/04/24 12:22:22;;;;;;;7.60;6.20;;;18.50;50.90;;;;;;5052037;28;20415;-79
2021/04/24 12:24:53;;;;;;;6.20;5.70;;;18.40;51.40;;;;;;5052674;28;20844;-79
2021/04/24 12:27:27;;;;;;;6.93;5.23;;;18.20;50.70;;;;;;5052111;28;20485;-80
2021/04/24 12:29:53;;;;;;;5.83;5.37;;;18.00;51.30;;;;;;5052998;28;20405;-79
2021/04/24 12:32:25;;;;;;;6.97;6.37;;;17.80;51.20;;;;;;5051911;28;20639;-79
2021/04/24 12:34:51;;;;;;;8.40;6.47;;;17.80;52.30;;;;;;5052692;28;20389;-79
2021/04/24 12:37:20;;;;;;;6.70;5.70;;;17.80;52.90;;;;;;5052030;28;20416;-78
2021/04/24 12:39:45;;;;;;;6.53;5.97;;;17.60;51.90;;;;;;5034500;28;20781;-79
2021/04/24 12:42:12;;;;;;;6.33;5.73;;;17.50;54.40;;;;;;5051693;28;20396;-78
2021/04/24 12:44:40;;;;;;;5.83;5.23;;;17.60;53.90;;;;;;5052484;28;20197;-79
2021/04/24 12:47:07;;;;;;;8.77;6.93;;;17.60;56.00;;;;;;5050849;28;20904;-88
2021/04/24 12:49:33;;;;;;;6.87;6.23;;;17.70;54.50;;;;;;5052393;28;20535;-77
2021/04/24 12:52:04;;;;;;;6.60;5.90;;;17.50;54.90;;;;;;5052047;28;20423;-77
2021/04/24 12:54:30;;;;;;;7.23;6.63;;;17.70;54.50;;;;;;5052444;28;20435;-77
2021/04/24 12:57:19;;;;;;;8.03;5.90;;;17.80;53.10;;;;;;5034485;28;20408;-79
2021/04/24 13:00:00;;;;;;;6.67;6.07;;;17.90;53.20;;;;;;5052208;28;20393;-78